sensor_id;sensor_type;location;lat;lon;timestamp;P1;durP1;ratioP1;P2;durP2;ratioP2
21181;SDS011;10749;46.296;7.524;2023-03-01T00:01:58;22.30;;;16.07;;
21181;SDS011;10749;46.296;7.524;2023-03-01T00:04:23;22.27;;;16.20;;
21181;SDS011;10749;46.296;7.524;2023-03-01T00:06:49;22.17;;;16.30;;
21181;SDS011;10749;46.296;7.524;2023-03-01T00:09:14;23.03;;;15.57;;
21181;SDS011;10749;46.296;7.524;2023-03-01T00:11:40;23.27;;;16.33;;
21181;SDS011;10749;46.296;7.524;2023-03-01T00:14:07;22.23;;;15.57;;
21181;SDS011;10749;46.296;7.524;2023-03-01T00:16:36;21.60;;;15.17;;
21181;SDS011;10749;46.296;7.524;2023-03-01T00:19:04;21.87;;;15.63;;
21181;SDS011;10749;46.296;7.524;2023-03-01T00:21:31;23.23;;;17.00;;
21181;SDS011;10749;46.296;7.524;2023-03-01T00:23:56;21.40;;;15.20;;
21181;SDS011;10749;46.296;7.524;2023-03-01T00:26:23;22.30;;;15.53;;
21181;SDS011;10749;46.296;7.524;2023-03-01T00:28:50;23.93;;;16.67;;
21181;SDS011;10749;46.296;7.524;2023-03-01T00:31:17;24.03;;;15.73;;
21181;SDS011;10749;46.296;7.524;2023-03-01T00:33:44;23.03;;;15.33;;
21181;SDS011;10749;46.296;7.524;2023-03-01T00:36:10;21.93;;;16.60;;
21181;SDS011;10749;46.296;7.524;2023-03-01T00:38:38;24.73;;;17.10;;
21181;SDS011;10749;46.296;7.524;2023-03-01T00:41:05;24.57;;;16.77;;
21181;SDS011;10749;46.296;7.524;2023-03-01T00:43:31;26.73;;;17.00;;
21181;SDS011;10749;46.296;7.524;2023-03-01T00:46:01;22.83;;;16.23;;
21181;SDS011;10749;46.296;7.524;2023-03-01T00:48:27;21.57;;;15.80;;
21181;SDS011;10749;46.296;7.524;2023-03-01T00:50:53;27.17;;;16.50;;
21181;SDS011;10749;46.296;7.524;2023-03-01T00:53:18;22.73;;;15.57;;
21181;SDS011;10749;46.296;7.524;2023-03-01T00:55:43;22.73;;;16.77;;
21181;SDS011;10749;46.296;7.524;2023-03-01T00:58:08;22.17;;;16.77;;
21181;SDS011;10749;46.296;7.524;2023-03-01T01:00:34;22.07;;;15.93;;
21181;SDS011;10749;46.296;7.524;2023-03-01T01:02:59;24.67;;;16.73;;
21181;SDS011;10749;46.296;7.524;2023-03-01T01:05:24;24.10;;;16.20;;
21181;SDS011;10749;46.296;7.524;2023-03-01T01:07:49;23.27;;;16.47;;
21181;SDS011;10749;46.296;7.524;2023-03-01T01:10:15;22.07;;;16.40;;
21181;SDS011;10749;46.296;7.524;2023-03-01T01:12:42;25.13;;;15.87;;
21181;SDS011;10749;46.296;7.524;2023-03-01T01:15:08;22.07;;;15.77;;
21181;SDS011;10749;46.296;7.524;2023-03-01T01:17:37;26.53;;;16.37;;
21181;SDS011;10749;46.296;7.524;2023-03-01T01:20:02;24.70;;;16.73;;
21181;SDS011;10749;46.296;7.524;2023-03-01T01:22:28;25.53;;;16.60;;
21181;SDS011;10749;46.296;7.524;2023-03-01T01:24:53;25.30;;;17.27;;
21181;SDS011;10749;46.296;7.524;2023-03-01T01:27:18;23.40;;;16.70;;
21181;SDS011;10749;46.296;7.524;2023-03-01T01:29:43;22.13;;;15.93;;
21181;SDS011;10749;46.296;7.524;2023-03-01T01:32:09;24.63;;;16.60;;
21181;SDS011;10749;46.296;7.524;2023-03-01T01:34:34;24.70;;;17.87;;
21181;SDS011;10749;46.296;7.524;2023-03-01T01:36:59;24.00;;;16.80;;
21181;SDS011;10749;46.296;7.524;2023-03-01T01:39:27;26.60;;;17.00;;
21181;SDS011;10749;46.296;7.524;2023-03-01T01:41:53;23.47;;;16.73;;
21181;SDS011;10749;46.296;7.524;2023-03-01T01:44:19;21.83;;;16.37;;
21181;SDS011;10749;46.296;7.524;2023-03-01T01:46:56;24.70;;;17.87;;
21181;SDS011;10749;46.296;7.524;2023-03-01T01:52:05;23.17;;;17.00;;
21181;SDS011;10749;46.296;7.524;2023-03-01T01:55:07;25.37;;;17.23;;
21181;SDS011;10749;46.296;7.524;2023-03-01T01:57:40;22.97;;;16.93;;
21181;SDS011;10749;46.296;7.524;2023-03-01T02:00:19;25.90;;;17.07;;
21181;SDS011;10749;46.296;7.524;2023-03-01T02:02:47;23.23;;;16.37;;
21181;SDS011;10749;46.296;7.524;2023-03-01T02:07:59;22.80;;;16.50;;
21181;SDS011;10749;46.296;7.524;2023-03-01T02:10:25;23.70;;;17.20;;
21181;SDS011;10749;46.296;7.524;2023-03-01T02:12:52;24.77;;;16.90;;
21181;SDS011;10749;46.296;7.524;2023-03-01T02:15:18;22.90;;;16.53;;
21181;SDS011;10749;46.296;7.524;2023-03-01T02:17:44;22.90;;;15.83;;
21181;SDS011;10749;46.296;7.524;2023-03-01T02:22:37;22.93;;;16.43;;
21181;SDS011;10749;46.296;7.524;2023-03-01T02:25:09;23.93;;;16.60;;
21181;SDS011;10749;46.296;7.524;2023-03-01T02:30:15;26.27;;;17.10;;
21181;SDS011;10749;46.296;7.524;2023-03-01T02:32:41;23.73;;;17.37;;
21181;SDS011;10749;46.296;7.524;2023-03-01T02:35:10;23.37;;;16.37;;
21181;SDS011;10749;46.296;7.524;2023-03-01T02:37:39;21.83;;;16.50;;
21181;SDS011;10749;46.296;7.524;2023-03-01T02:40:07;23.93;;;16.40;;
21181;SDS011;10749;46.296;7.524;2023-03-01T02:42:37;24.97;;;17.17;;
21181;SDS011;10749;46.296;7.524;2023-03-01T02:45:09;23.50;;;16.33;;
21181;SDS011;10749;46.296;7.524;2023-03-01T02:47:35;22.33;;;16.20;;
21181;SDS011;10749;46.296;7.524;2023-03-01T02:50:00;25.53;;;16.77;;
21181;SDS011;10749;46.296;7.524;2023-03-01T02:55:20;23.40;;;16.37;;
21181;SDS011;10749;46.296;7.524;2023-03-01T02:57:46;26.20;;;17.37;;
21181;SDS011;10749;46.296;7.524;2023-03-01T03:03:15;27.00;;;17.57;;
21181;SDS011;10749;46.296;7.524;2023-03-01T03:05:42;23.30;;;16.10;;
21181;SDS011;10749;46.296;7.524;2023-03-01T03:08:08;23.90;;;16.70;;
21181;SDS011;10749;46.296;7.524;2023-03-01T03:10:36;24.83;;;16.97;;
21181;SDS011;10749;46.296;7.524;2023-03-01T03:13:06;25.70;;;17.37;;
21181;SDS011;10749;46.296;7.524;2023-03-01T03:15:33;24.93;;;16.53;;
21181;SDS011;10749;46.296;7.524;2023-03-01T03:18:01;25.87;;;16.67;;
21181;SDS011;10749;46.296;7.524;2023-03-01T03:20:28;26.40;;;16.67;;
21181;SDS011;10749;46.296;7.524;2023-03-01T03:22:55;25.50;;;17.07;;
21181;SDS011;10749;46.296;7.524;2023-03-01T03:25:22;25.87;;;17.00;;
21181;SDS011;10749;46.296;7.524;2023-03-01T03:27:48;25.40;;;16.77;;
21181;SDS011;10749;46.296;7.524;2023-03-01T03:30:22;23.33;;;16.00;;
21181;SDS011;10749;46.296;7.524;2023-03-01T03:32:49;24.77;;;16.73;;
21181;SDS011;10749;46.296;7.524;2023-03-01T03:35:21;21.93;;;15.33;;
21181;SDS011;10749;46.296;7.524;2023-03-01T03:37:52;25.07;;;16.47;;
21181;SDS011;10749;46.296;7.524;2023-03-01T03:40:26;21.90;;;16.20;;
21181;SDS011;10749;46.296;7.524;2023-03-01T03:42:53;21.60;;;15.80;;
21181;SDS011;10749;46.296;7.524;2023-03-01T03:45:19;25.60;;;16.83;;
21181;SDS011;10749;46.296;7.524;2023-03-01T03:47:45;23.87;;;16.17;;
21181;SDS011;10749;46.296;7.524;2023-03-01T03:50:11;23.47;;;16.37;;
21181;SDS011;10749;46.296;7.524;2023-03-01T03:52:38;24.50;;;17.67;;
21181;SDS011;10749;46.296;7.524;2023-03-01T03:55:04;23.77;;;16.87;;
21181;SDS011;10749;46.296;7.524;2023-03-01T03:57:34;23.03;;;16.40;;
21181;SDS011;10749;46.296;7.524;2023-03-01T03:59:59;24.10;;;16.60;;
21181;SDS011;10749;46.296;7.524;2023-03-01T04:02:25;24.47;;;16.60;;
21181;SDS011;10749;46.296;7.524;2023-03-01T04:04:51;25.30;;;16.30;;
21181;SDS011;10749;46.296;7.524;2023-03-01T04:07:16;24.73;;;16.90;;
21181;SDS011;10749;46.296;7.524;2023-03-01T04:09:42;23.33;;;16.60;;
21181;SDS011;10749;46.296;7.524;2023-03-01T04:12:08;23.13;;;16.43;;
21181;SDS011;10749;46.296;7.524;2023-03-01T04:14:34;21.23;;;15.80;;
21181;SDS011;10749;46.296;7.524;2023-03-01T04:16:59;24.87;;;16.27;;
21181;SDS011;10749;46.296;7.524;2023-03-01T04:19:28;25.07;;;16.73;;
21181;SDS011;10749;46.296;7.524;2023-03-01T04:22:01;25.30;;;16.67;;
21181;SDS011;10749;46.296;7.524;2023-03-01T04:24:32;26.53;;;17.07;;
21181;SDS011;10749;46.296;7.524;2023-03-01T04:26:58;26.60;;;17.40;;
21181;SDS011;10749;46.296;7.524;2023-03-01T04:29:23;25.97;;;17.60;;
21181;SDS011;10749;46.296;7.524;2023-03-01T04:31:48;22.77;;;16.53;;
21181;SDS011;10749;46.296;7.524;2023-03-01T04:34:14;24.77;;;17.50;;
21181;SDS011;10749;46.296;7.524;2023-03-01T04:36:39;27.63;;;18.30;;
21181;SDS011;10749;46.296;7.524;2023-03-01T04:39:04;27.63;;;18.37;;
21181;SDS011;10749;46.296;7.524;2023-03-01T04:41:36;26.50;;;17.87;;
21181;SDS011;10749;46.296;7.524;2023-03-01T04:44:04;29.43;;;18.13;;
21181;SDS011;10749;46.296;7.524;2023-03-01T04:46:30;27.20;;;16.93;;
21181;SDS011;10749;46.296;7.524;2023-03-01T04:48:55;25.90;;;17.83;;
21181;SDS011;10749;46.296;7.524;2023-03-01T04:51:20;26.80;;;17.80;;
21181;SDS011;10749;46.296;7.524;2023-03-01T04:53:46;27.67;;;17.47;;
21181;SDS011;10749;46.296;7.524;2023-03-01T04:56:12;25.87;;;17.77;;
21181;SDS011;10749;46.296;7.524;2023-03-01T04:58:42;25.13;;;16.83;;
21181;SDS011;10749;46.296;7.524;2023-03-01T05:01:12;24.63;;;17.80;;
21181;SDS011;10749;46.296;7.524;2023-03-01T05:03:42;25.93;;;17.53;;
21181;SDS011;10749;46.296;7.524;2023-03-01T05:06:09;28.73;;;18.37;;
21181;SDS011;10749;46.296;7.524;2023-03-01T05:08:35;29.03;;;18.67;;
21181;SDS011;10749;46.296;7.524;2023-03-01T05:11:04;25.10;;;17.37;;
21181;SDS011;10749;46.296;7.524;2023-03-01T05:13:30;26.97;;;18.13;;
21181;SDS011;10749;46.296;7.524;2023-03-01T05:15:57;29.53;;;18.60;;
21181;SDS011;10749;46.296;7.524;2023-03-01T05:18:24;28.07;;;18.77;;
21181;SDS011;10749;46.296;7.524;2023-03-01T05:20:54;27.60;;;18.33;;
21181;SDS011;10749;46.296;7.524;2023-03-01T05:23:23;27.43;;;18.97;;
21181;SDS011;10749;46.296;7.524;2023-03-01T05:25:50;28.73;;;18.73;;
21181;SDS011;10749;46.296;7.524;2023-03-01T05:28:17;34.97;;;20.73;;
21181;SDS011;10749;46.296;7.524;2023-03-01T05:30:43;29.70;;;19.70;;
21181;SDS011;10749;46.296;7.524;2023-03-01T05:33:08;25.53;;;18.47;;
21181;SDS011;10749;46.296;7.524;2023-03-01T05:35:43;25.60;;;18.20;;
21181;SDS011;10749;46.296;7.524;2023-03-01T05:38:10;24.07;;;17.40;;
21181;SDS011;10749;46.296;7.524;2023-03-01T05:40:43;25.03;;;17.63;;
21181;SDS011;10749;46.296;7.524;2023-03-01T05:43:10;29.60;;;18.30;;
21181;SDS011;10749;46.296;7.524;2023-03-01T05:45:36;26.63;;;16.50;;
21181;SDS011;10749;46.296;7.524;2023-03-01T05:48:05;28.07;;;18.73;;
21181;SDS011;10749;46.296;7.524;2023-03-01T05:50:33;27.33;;;17.30;;
21181;SDS011;10749;46.296;7.524;2023-03-01T05:53:01;27.53;;;17.57;;
21181;SDS011;10749;46.296;7.524;2023-03-01T05:55:30;25.97;;;17.60;;
21181;SDS011;10749;46.296;7.524;2023-03-01T05:58:00;26.43;;;17.70;;
21181;SDS011;10749;46.296;7.524;2023-03-01T06:00:27;25.40;;;17.97;;
21181;SDS011;10749;46.296;7.524;2023-03-01T06:02:53;29.70;;;18.73;;
21181;SDS011;10749;46.296;7.524;2023-03-01T06:05:19;28.50;;;18.43;;
21181;SDS011;10749;46.296;7.524;2023-03-01T06:07:45;27.23;;;17.87;;
21181;SDS011;10749;46.296;7.524;2023-03-01T06:10:11;30.70;;;19.87;;
21181;SDS011;10749;46.296;7.524;2023-03-01T06:12:38;27.77;;;18.93;;
21181;SDS011;10749;46.296;7.524;2023-03-01T06:15:05;28.13;;;19.90;;
21181;SDS011;10749;46.296;7.524;2023-03-01T06:17:32;31.37;;;19.17;;
21181;SDS011;10749;46.296;7.524;2023-03-01T06:20:02;30.23;;;19.80;;
21181;SDS011;10749;46.296;7.524;2023-03-01T06:22:28;30.67;;;19.70;;
21181;SDS011;10749;46.296;7.524;2023-03-01T06:24:54;29.77;;;19.43;;
21181;SDS011;10749;46.296;7.524;2023-03-01T06:27:19;32.20;;;19.93;;
21181;SDS011;10749;46.296;7.524;2023-03-01T06:29:44;30.30;;;20.17;;
21181;SDS011;10749;46.296;7.524;2023-03-01T06:32:10;30.77;;;20.70;;
21181;SDS011;10749;46.296;7.524;2023-03-01T06:34:35;32.97;;;20.03;;
21181;SDS011;10749;46.296;7.524;2023-03-01T06:37:00;30.90;;;20.20;;
21181;SDS011;10749;46.296;7.524;2023-03-01T06:39:30;29.97;;;19.07;;
21181;SDS011;10749;46.296;7.524;2023-03-01T06:41:55;29.80;;;20.07;;
21181;SDS011;10749;46.296;7.524;2023-03-01T06:44:21;31.30;;;20.63;;
21181;SDS011;10749;46.296;7.524;2023-03-01T06:46:46;30.87;;;20.07;;
21181;SDS011;10749;46.296;7.524;2023-03-01T06:49:11;29.73;;;20.20;;
21181;SDS011;10749;46.296;7.524;2023-03-01T06:51:37;32.87;;;21.13;;
21181;SDS011;10749;46.296;7.524;2023-03-01T06:54:03;29.70;;;19.83;;
21181;SDS011;10749;46.296;7.524;2023-03-01T06:56:29;30.33;;;19.80;;
21181;SDS011;10749;46.296;7.524;2023-03-01T06:58:55;32.47;;;20.57;;
21181;SDS011;10749;46.296;7.524;2023-03-01T07:01:20;29.40;;;20.27;;
21181;SDS011;10749;46.296;7.524;2023-03-01T07:03:46;31.27;;;20.33;;
21181;SDS011;10749;46.296;7.524;2023-03-01T07:06:11;33.73;;;20.70;;
21181;SDS011;10749;46.296;7.524;2023-03-01T07:08:36;35.30;;;20.60;;
21181;SDS011;10749;46.296;7.524;2023-03-01T07:11:01;30.90;;;20.53;;
21181;SDS011;10749;46.296;7.524;2023-03-01T07:13:28;30.73;;;20.50;;
21181;SDS011;10749;46.296;7.524;2023-03-01T07:15:53;32.57;;;21.43;;
21181;SDS011;10749;46.296;7.524;2023-03-01T07:18:18;29.50;;;20.77;;
21181;SDS011;10749;46.296;7.524;2023-03-01T07:20:47;28.43;;;19.83;;
21181;SDS011;10749;46.296;7.524;2023-03-01T07:23:12;30.80;;;21.17;;
21181;SDS011;10749;46.296;7.524;2023-03-01T07:25:37;30.47;;;21.10;;
21181;SDS011;10749;46.296;7.524;2023-03-01T07:28:03;30.60;;;20.57;;
21181;SDS011;10749;46.296;7.524;2023-03-01T07:30:28;31.47;;;21.17;;
21181;SDS011;10749;46.296;7.524;2023-03-01T07:32:57;33.23;;;21.03;;
21181;SDS011;10749;46.296;7.524;2023-03-01T07:35:23;33.00;;;21.37;;
21181;SDS011;10749;46.296;7.524;2023-03-01T07:37:50;31.33;;;20.83;;
21181;SDS011;10749;46.296;7.524;2023-03-01T07:40:15;36.63;;;22.03;;
21181;SDS011;10749;46.296;7.524;2023-03-01T07:42:44;34.23;;;22.23;;
21181;SDS011;10749;46.296;7.524;2023-03-01T07:45:09;35.37;;;22.47;;
21181;SDS011;10749;46.296;7.524;2023-03-01T07:47:35;30.90;;;21.10;;
21181;SDS011;10749;46.296;7.524;2023-03-01T07:50:00;30.93;;;21.10;;
21181;SDS011;10749;46.296;7.524;2023-03-01T07:52:26;29.40;;;20.37;;
21181;SDS011;10749;46.296;7.524;2023-03-01T07:54:52;32.17;;;21.97;;
21181;SDS011;10749;46.296;7.524;2023-03-01T07:57:17;30.83;;;21.57;;
21181;SDS011;10749;46.296;7.524;2023-03-01T07:59:42;32.60;;;21.57;;
21181;SDS011;10749;46.296;7.524;2023-03-01T08:02:08;31.70;;;20.70;;
21181;SDS011;10749;46.296;7.524;2023-03-01T08:04:35;30.97;;;21.37;;
21181;SDS011;10749;46.296;7.524;2023-03-01T08:07:00;30.03;;;20.70;;
21181;SDS011;10749;46.296;7.524;2023-03-01T08:09:25;34.40;;;21.67;;
21181;SDS011;10749;46.296;7.524;2023-03-01T08:11:50;31.90;;;21.43;;
21181;SDS011;10749;46.296;7.524;2023-03-01T08:14:16;31.30;;;21.87;;
21181;SDS011;10749;46.296;7.524;2023-03-01T08:16:41;32.17;;;21.37;;
21181;SDS011;10749;46.296;7.524;2023-03-01T08:19:07;28.03;;;20.30;;
21181;SDS011;10749;46.296;7.524;2023-03-01T08:21:34;28.93;;;19.87;;
21181;SDS011;10749;46.296;7.524;2023-03-01T08:24:04;28.20;;;19.97;;
21181;SDS011;10749;46.296;7.524;2023-03-01T08:26:31;32.00;;;20.77;;
21181;SDS011;10749;46.296;7.524;2023-03-01T08:28:57;30.33;;;21.20;;
21181;SDS011;10749;46.296;7.524;2023-03-01T08:33:53;30.67;;;20.23;;
21181;SDS011;10749;46.296;7.524;2023-03-01T08:36:24;29.53;;;21.33;;
21181;SDS011;10749;46.296;7.524;2023-03-01T08:38:51;32.67;;;22.33;;
21181;SDS011;10749;46.296;7.524;2023-03-01T08:41:17;30.37;;;21.27;;
21181;SDS011;10749;46.296;7.524;2023-03-01T08:43:43;31.77;;;22.27;;
21181;SDS011;10749;46.296;7.524;2023-03-01T08:46:08;31.80;;;21.93;;
21181;SDS011;10749;46.296;7.524;2023-03-01T08:48:34;33.60;;;21.23;;
21181;SDS011;10749;46.296;7.524;2023-03-01T08:51:16;33.57;;;22.07;;
21181;SDS011;10749;46.296;7.524;2023-03-01T08:53:43;31.30;;;21.67;;
21181;SDS011;10749;46.296;7.524;2023-03-01T08:56:09;34.90;;;22.43;;
21181;SDS011;10749;46.296;7.524;2023-03-01T08:58:35;36.37;;;23.23;;
21181;SDS011;10749;46.296;7.524;2023-03-01T09:01:00;34.27;;;23.30;;
21181;SDS011;10749;46.296;7.524;2023-03-01T09:03:31;31.67;;;22.73;;
21181;SDS011;10749;46.296;7.524;2023-03-01T09:05:59;32.30;;;22.93;;
21181;SDS011;10749;46.296;7.524;2023-03-01T09:08:25;32.70;;;22.77;;
21181;SDS011;10749;46.296;7.524;2023-03-01T09:10:51;32.77;;;23.80;;
21181;SDS011;10749;46.296;7.524;2023-03-01T09:13:16;31.00;;;23.03;;
21181;SDS011;10749;46.296;7.524;2023-03-01T09:15:41;34.23;;;22.87;;
21181;SDS011;10749;46.296;7.524;2023-03-01T09:18:07;34.13;;;23.47;;
21181;SDS011;10749;46.296;7.524;2023-03-01T09:20:32;33.40;;;23.17;;
21181;SDS011;10749;46.296;7.524;2023-03-01T09:22:57;33.80;;;22.77;;
21181;SDS011;10749;46.296;7.524;2023-03-01T09:25:23;36.27;;;23.60;;
21181;SDS011;10749;46.296;7.524;2023-03-01T09:27:52;35.43;;;23.60;;
21181;SDS011;10749;46.296;7.524;2023-03-01T09:30:17;36.97;;;24.20;;
21181;SDS011;10749;46.296;7.524;2023-03-01T09:32:43;31.83;;;22.27;;
21181;SDS011;10749;46.296;7.524;2023-03-01T09:35:09;33.23;;;24.27;;
21181;SDS011;10749;46.296;7.524;2023-03-01T09:37:36;33.13;;;23.63;;
21181;SDS011;10749;46.296;7.524;2023-03-01T09:40:03;32.67;;;23.33;;
21181;SDS011;10749;46.296;7.524;2023-03-01T09:42:31;31.53;;;23.40;;
21181;SDS011;10749;46.296;7.524;2023-03-01T09:45:04;33.23;;;23.23;;
21181;SDS011;10749;46.296;7.524;2023-03-01T09:47:33;32.50;;;22.93;;
21181;SDS011;10749;46.296;7.524;2023-03-01T09:50:02;32.60;;;23.17;;
21181;SDS011;10749;46.296;7.524;2023-03-01T09:55:08;30.20;;;22.13;;
21181;SDS011;10749;46.296;7.524;2023-03-01T10:03:15;30.37;;;20.93;;
21181;SDS011;10749;46.296;7.524;2023-03-01T10:11:28;25.40;;;19.53;;
21181;SDS011;10749;46.296;7.524;2023-03-01T10:16:41;28.47;;;19.90;;
21181;SDS011;10749;46.296;7.524;2023-03-01T10:24:48;26.13;;;19.03;;
21181;SDS011;10749;46.296;7.524;2023-03-01T10:27:26;24.90;;;19.43;;
21181;SDS011;10749;46.296;7.524;2023-03-01T10:30:06;26.03;;;19.97;;
21181;SDS011;10749;46.296;7.524;2023-03-01T10:32:38;26.90;;;20.67;;
21181;SDS011;10749;46.296;7.524;2023-03-01T10:35:15;31.73;;;19.60;;
21181;SDS011;10749;46.296;7.524;2023-03-01T10:40:31;28.57;;;21.43;;
21181;SDS011;10749;46.296;7.524;2023-03-01T10:42:58;29.90;;;20.90;;
21181;SDS011;10749;46.296;7.524;2023-03-01T10:45:30;28.87;;;21.20;;
21181;SDS011;10749;46.296;7.524;2023-03-01T10:48:05;30.50;;;21.93;;
21181;SDS011;10749;46.296;7.524;2023-03-01T10:50:33;27.30;;;21.07;;
21181;SDS011;10749;46.296;7.524;2023-03-01T10:52:59;27.93;;;21.33;;
21181;SDS011;10749;46.296;7.524;2023-03-01T10:55:31;26.13;;;20.43;;
21181;SDS011;10749;46.296;7.524;2023-03-01T10:58:19;26.57;;;20.33;;
21181;SDS011;10749;46.296;7.524;2023-03-01T11:03:27;30.87;;;21.27;;
21181;SDS011;10749;46.296;7.524;2023-03-01T11:11:04;22.77;;;16.50;;
21181;SDS011;10749;46.296;7.524;2023-03-01T11:13:31;17.63;;;14.20;;
21181;SDS011;10749;46.296;7.524;2023-03-01T11:16:05;20.07;;;14.90;;
21181;SDS011;10749;46.296;7.524;2023-03-01T11:18:34;16.13;;;13.30;;
21181;SDS011;10749;46.296;7.524;2023-03-01T11:21:00;20.07;;;15.30;;
21181;SDS011;10749;46.296;7.524;2023-03-01T11:23:30;20.30;;;15.33;;
21181;SDS011;10749;46.296;7.524;2023-03-01T11:26:00;19.33;;;16.37;;
21181;SDS011;10749;46.296;7.524;2023-03-01T11:28:30;20.70;;;16.60;;
21181;SDS011;10749;46.296;7.524;2023-03-01T11:30:57;21.40;;;17.40;;
21181;SDS011;10749;46.296;7.524;2023-03-01T11:33:35;21.80;;;17.30;;
21181;SDS011;10749;46.296;7.524;2023-03-01T11:36:03;23.23;;;17.63;;
21181;SDS011;10749;46.296;7.524;2023-03-01T11:38:34;22.67;;;17.67;;
21181;SDS011;10749;46.296;7.524;2023-03-01T11:41:10;23.17;;;17.90;;
21181;SDS011;10749;46.296;7.524;2023-03-01T11:54:15;22.17;;;17.50;;
21181;SDS011;10749;46.296;7.524;2023-03-01T11:57:08;24.80;;;18.77;;
21181;SDS011;10749;46.296;7.524;2023-03-01T12:00:02;30.20;;;20.03;;
21181;SDS011;10749;46.296;7.524;2023-03-01T12:05:23;27.23;;;20.17;;
21181;SDS011;10749;46.296;7.524;2023-03-01T12:08:05;23.73;;;19.27;;
21181;SDS011;10749;46.296;7.524;2023-03-01T12:10:49;24.50;;;19.77;;
21181;SDS011;10749;46.296;7.524;2023-03-01T12:19:01;23.83;;;18.77;;
21181;SDS011;10749;46.296;7.524;2023-03-01T12:21:46;22.63;;;16.57;;
21181;SDS011;10749;46.296;7.524;2023-03-01T12:27:02;22.30;;;16.20;;
21181;SDS011;10749;46.296;7.524;2023-03-01T12:29:53;23.97;;;16.40;;
21181;SDS011;10749;46.296;7.524;2023-03-01T12:32:40;22.30;;;15.43;;
21181;SDS011;10749;46.296;7.524;2023-03-01T12:37:57;20.30;;;15.00;;
21181;SDS011;10749;46.296;7.524;2023-03-01T12:40:37;16.70;;;13.90;;
21181;SDS011;10749;46.296;7.524;2023-03-01T12:43:24;15.70;;;12.70;;
21181;SDS011;10749;46.296;7.524;2023-03-01T12:49:09;16.73;;;14.27;;
21181;SDS011;10749;46.296;7.524;2023-03-01T12:51:49;19.33;;;14.40;;
21181;SDS011;10749;46.296;7.524;2023-03-01T12:54:30;20.73;;;14.60;;
21181;SDS011;10749;46.296;7.524;2023-03-01T12:56:59;19.37;;;15.57;;
21181;SDS011;10749;46.296;7.524;2023-03-01T13:02:36;18.83;;;15.43;;
21181;SDS011;10749;46.296;7.524;2023-03-01T13:05:23;17.73;;;15.60;;
21181;SDS011;10749;46.296;7.524;2023-03-01T13:08:06;17.87;;;15.73;;
21181;SDS011;10749;46.296;7.524;2023-03-01T13:13:18;19.70;;;15.27;;
21181;SDS011;10749;46.296;7.524;2023-03-01T13:15:50;19.50;;;14.87;;
21181;SDS011;10749;46.296;7.524;2023-03-01T13:28:39;18.03;;;14.53;;
21181;SDS011;10749;46.296;7.524;2023-03-01T13:38:56;17.90;;;14.60;;
21181;SDS011;10749;46.296;7.524;2023-03-01T13:42:25;18.37;;;14.20;;
21181;SDS011;10749;46.296;7.524;2023-03-01T13:44:12;21.60;;;15.30;;
21181;SDS011;10749;46.296;7.524;2023-03-01T13:46:37;18.60;;;15.23;;
21181;SDS011;10749;46.296;7.524;2023-03-01T13:49:03;18.07;;;14.53;;
21181;SDS011;10749;46.296;7.524;2023-03-01T13:51:28;19.93;;;14.87;;
21181;SDS011;10749;46.296;7.524;2023-03-01T13:53:54;21.03;;;14.87;;
21181;SDS011;10749;46.296;7.524;2023-03-01T13:56:29;20.63;;;15.33;;
21181;SDS011;10749;46.296;7.524;2023-03-01T13:59:05;18.70;;;14.73;;
21181;SDS011;10749;46.296;7.524;2023-03-01T14:01:38;16.63;;;14.73;;
21181;SDS011;10749;46.296;7.524;2023-03-01T14:04:14;20.90;;;14.97;;
21181;SDS011;10749;46.296;7.524;2023-03-01T14:07:09;21.23;;;14.57;;
21181;SDS011;10749;46.296;7.524;2023-03-01T14:09:34;20.87;;;14.27;;
21181;SDS011;10749;46.296;7.524;2023-03-01T14:12:18;18.77;;;14.83;;
21181;SDS011;10749;46.296;7.524;2023-03-01T14:18:04;18.67;;;15.67;;
21181;SDS011;10749;46.296;7.524;2023-03-01T14:20:39;17.87;;;14.60;;
21181;SDS011;10749;46.296;7.524;2023-03-01T14:23:17;16.43;;;14.70;;
21181;SDS011;10749;46.296;7.524;2023-03-01T14:25:54;17.03;;;14.57;;
21181;SDS011;10749;46.296;7.524;2023-03-01T14:28:28;20.87;;;14.37;;
21181;SDS011;10749;46.296;7.524;2023-03-01T14:30:58;18.40;;;14.70;;
21181;SDS011;10749;46.296;7.524;2023-03-01T14:33:26;18.90;;;14.57;;
21181;SDS011;10749;46.296;7.524;2023-03-01T14:38:40;18.80;;;14.83;;
21181;SDS011;10749;46.296;7.524;2023-03-01T14:43:44;19.93;;;14.30;;
21181;SDS011;10749;46.296;7.524;2023-03-01T14:46:24;19.07;;;15.30;;
21181;SDS011;10749;46.296;7.524;2023-03-01T14:48:54;18.63;;;14.57;;
21181;SDS011;10749;46.296;7.524;2023-03-01T14:51:23;20.80;;;14.53;;
21181;SDS011;10749;46.296;7.524;2023-03-01T14:53:49;18.87;;;14.80;;
21181;SDS011;10749;46.296;7.524;2023-03-01T14:56:16;19.73;;;14.17;;
21181;SDS011;10749;46.296;7.524;2023-03-01T14:58:45;18.37;;;14.70;;
21181;SDS011;10749;46.296;7.524;2023-03-01T15:01:15;21.70;;;14.40;;
21181;SDS011;10749;46.296;7.524;2023-03-01T15:03:49;20.20;;;14.77;;
21181;SDS011;10749;46.296;7.524;2023-03-01T15:06:17;19.50;;;14.40;;
21181;SDS011;10749;46.296;7.524;2023-03-01T15:08:48;17.63;;;14.90;;
21181;SDS011;10749;46.296;7.524;2023-03-01T15:13:48;19.67;;;14.77;;
21181;SDS011;10749;46.296;7.524;2023-03-01T15:16:14;20.47;;;15.07;;
21181;SDS011;10749;46.296;7.524;2023-03-01T15:18:46;19.17;;;14.60;;
21181;SDS011;10749;46.296;7.524;2023-03-01T15:21:26;18.83;;;14.70;;
21181;SDS011;10749;46.296;7.524;2023-03-01T15:23:56;20.40;;;14.90;;
21181;SDS011;10749;46.296;7.524;2023-03-01T15:26:32;20.97;;;15.53;;
21181;SDS011;10749;46.296;7.524;2023-03-01T15:29:04;21.37;;;14.47;;
21181;SDS011;10749;46.296;7.524;2023-03-01T15:31:41;18.20;;;13.60;;
21181;SDS011;10749;46.296;7.524;2023-03-01T15:34:27;20.83;;;14.50;;
21181;SDS011;10749;46.296;7.524;2023-03-01T15:36:55;19.23;;;14.40;;
21181;SDS011;10749;46.296;7.524;2023-03-01T15:42:12;18.60;;;14.87;;
21181;SDS011;10749;46.296;7.524;2023-03-01T15:44:50;19.80;;;15.07;;
21181;SDS011;10749;46.296;7.524;2023-03-01T15:47:32;21.43;;;14.80;;
21181;SDS011;10749;46.296;7.524;2023-03-01T15:49:59;19.97;;;15.33;;
21181;SDS011;10749;46.296;7.524;2023-03-01T15:52:35;21.83;;;15.17;;
21181;SDS011;10749;46.296;7.524;2023-03-01T15:55:12;19.50;;;14.37;;
21181;SDS011;10749;46.296;7.524;2023-03-01T15:57:49;17.63;;;14.27;;
21181;SDS011;10749;46.296;7.524;2023-03-01T16:00:25;22.00;;;15.60;;
21181;SDS011;10749;46.296;7.524;2023-03-01T16:02:50;20.73;;;15.20;;
21181;SDS011;10749;46.296;7.524;2023-03-01T16:05:21;19.43;;;14.80;;
21181;SDS011;10749;46.296;7.524;2023-03-01T16:07:48;20.27;;;15.17;;
21181;SDS011;10749;46.296;7.524;2023-03-01T16:10:14;21.47;;;15.87;;
21181;SDS011;10749;46.296;7.524;2023-03-01T16:12:40;23.77;;;16.43;;
21181;SDS011;10749;46.296;7.524;2023-03-01T16:15:11;20.70;;;15.77;;
21181;SDS011;10749;46.296;7.524;2023-03-01T16:17:41;20.43;;;16.43;;
21181;SDS011;10749;46.296;7.524;2023-03-01T16:20:06;19.67;;;15.00;;
21181;SDS011;10749;46.296;7.524;2023-03-01T16:22:32;22.73;;;15.63;;
21181;SDS011;10749;46.296;7.524;2023-03-01T16:24:57;21.57;;;15.40;;
21181;SDS011;10749;46.296;7.524;2023-03-01T16:27:23;20.97;;;15.57;;
21181;SDS011;10749;46.296;7.524;2023-03-01T16:29:48;20.37;;;16.10;;